Terminal Aerodrome Forecast
Issued by NWS

Home | Current Version | Previous Version | Text Only | Print | Product List | Glossary On
Versions: 1 2 3 4 5 6 7 8 9 10 11 12 13 14 15
501
FTUS43 KGRR 161321 AAA
TAFMKG
TAF AMD
KMKG 161321Z 1613/1712 VRB03KT 5SM BR BKN100
      TEMPO 1614/1617 4SM -FZRAPL BR
     FM161700 12006KT 3SM -RAPLSN BR OVC011
     FM162000 10006KT 1 1/2SM -RAPLSN BR OVC007
     FM162300 10007KT 1/2SM RA FG OVC003=

USA.gov is the U.S. government's official web portal to all federal, state and local government web resources and services.